Time;durP1;ratioP1;P1;durP2;ratioP2;P2;SDS_P1;SDS_P2;PMS_P1;PMS_P2;Temp;Humidity;BMP_temperature;BMP_pressure;BME280_temperature;BME280_humidity;BME280_pressure;Samples;Min_cycle;Max_cycle;Signal;HPM_P1;HPM_P2
2023/07/26 00:00:26;;;;;;;5.85;1.70;;;;;;;;;;4989376;28;20573;-61
2023/07/26 00:02:52;;;;;;;3.03;1.55;;;;;;;;;;4986260;28;20669;-62
2023/07/26 00:05:17;;;;;;;3.65;1.48;;;;;;;;;;4987249;28;20209;-61
2023/07/26 00:07:42;;;;;;;3.95;1.60;;;;;;;;;;4988870;28;20231;-62
2023/07/26 00:10:08;;;;;;;5.03;1.65;;;;;;;;;;4987093;28;20649;-61
2023/07/26 00:12:33;;;;;;;5.53;1.50;;;;;;;;;;4986912;28;20213;-62
2023/07/26 00:14:58;;;;;;;5.53;1.80;;;;;;;;;;4988968;28;20295;-62
2023/07/26 00:17:24;;;;;;;7.60;1.60;;;;;;;;;;4987611;28;20233;-62
2023/07/26 00:19:49;;;;;;;4.45;1.75;;;;;;;;;;4986568;28;20206;-61
2023/07/26 00:22:14;;;;;;;7.03;1.67;;;;;;;;;;4988168;28;20255;-61
2023/07/26 00:24:40;;;;;;;3.03;1.73;;;;;;;;;;4988004;28;20210;-61
2023/07/26 00:27:05;;;;;;;6.70;2.00;;;;;;;;;;4986845;28;20213;-62
2023/07/26 00:29:30;;;;;;;3.72;1.60;;;;;;;;;;4987711;28;20221;-62
2023/07/26 00:31:56;;;;;;;4.75;1.77;;;;;;;;;;4988067;28;20221;-62
2023/07/26 00:34:21;;;;;;;4.20;1.50;;;;;;;;;;4988143;28;20645;-61
2023/07/26 00:36:46;;;;;;;4.63;1.63;;;;;;;;;;4986538;28;20220;-62
2023/07/26 00:39:12;;;;;;;5.60;1.67;;;;;;;;;;4987498;28;20233;-61
2023/07/26 00:41:37;;;;;;;3.10;1.60;;;;;;;;;;4988258;28;20248;-62
2023/07/26 00:44:03;;;;;;;3.70;1.55;;;;;;;;;;4986188;28;20272;-61
2023/07/26 00:46:28;;;;;;;4.70;1.98;;;;;;;;;;4987090;28;20643;-62
2023/07/26 00:48:53;;;;;;;4.55;1.85;;;;;;;;;;4971408;28;20205;-62
2023/07/26 00:51:19;;;;;;;3.08;1.70;;;;;;;;;;4990336;28;20217;-62
2023/07/26 00:53:45;;;;;;;3.85;1.63;;;;;;;;;;4989672;28;20213;-61
2023/07/26 00:56:10;;;;;;;3.75;1.80;;;;;;;;;;4991733;28;20220;-61
2023/07/26 00:58:36;;;;;;;6.18;1.85;;;;;;;;;;4992210;28;20233;-62
2023/07/26 01:01:03;;;;;;;5.65;1.88;;;;;;;;;;4988832;28;20217;-61
2023/07/26 01:03:28;;;;;;;4.57;2.28;;;;;;;;;;4992183;28;20630;-61
2023/07/26 01:05:57;;;;;;;4.63;1.83;;;;;;;;;;4991399;28;20268;-62
2023/07/26 01:08:27;;;;;;;5.38;2.00;;;;;;;;;;4972701;28;20293;-62
2023/07/26 01:10:56;;;;;;;8.77;2.33;;;;;;;;;;4973218;28;20213;-62
2023/07/26 01:13:31;;;;;;;4.68;2.15;;;;;;;;;;4973182;28;20221;-62
2023/07/26 01:15:56;;;;;;;6.90;2.08;;;;;;;;;;4992134;28;20311;-62
2023/07/26 01:18:21;;;;;;;6.75;2.38;;;;;;;;;;4988348;28;20717;-61
2023/07/26 01:20:47;;;;;;;7.10;2.50;;;;;;;;;;4991197;28;20274;-62
2023/07/26 01:23:12;;;;;;;6.13;2.33;;;;;;;;;;4991177;28;20205;-61
2023/07/26 01:25:37;;;;;;;8.10;2.50;;;;;;;;;;4990240;28;20209;-61
2023/07/26 01:28:03;;;;;;;4.75;2.15;;;;;;;;;;4987608;28;20271;-60
2023/07/26 01:30:29;;;;;;;6.28;2.30;;;;;;;;;;4980187;28;20228;-61
2023/07/26 01:32:54;;;;;;;3.22;2.10;;;;;;;;;;4963725;28;20213;-61
2023/07/26 01:35:19;;;;;;;4.53;2.10;;;;;;;;;;4961968;28;20217;-61
2023/07/26 01:37:45;;;;;;;6.95;2.10;;;;;;;;;;4981673;28;20231;-61
2023/07/26 01:40:10;;;;;;;4.53;2.38;;;;;;;;;;4981762;28;20701;-60
2023/07/26 01:42:35;;;;;;;6.18;2.72;;;;;;;;;;4955032;28;20312;-61
2023/07/26 01:45:02;;;;;;;5.13;2.80;;;;;;;;;;4972954;28;20213;-61
2023/07/26 01:47:27;;;;;;;6.65;2.67;;;;;;;;;;4956065;28;20244;-61
2023/07/26 01:49:52;;;;;;;6.68;3.05;;;;;;;;;;4978503;28;20213;-61
2023/07/26 01:52:17;;;;;;;6.47;2.90;;;;;;;;;;4963154;28;20268;-61
2023/07/26 01:54:43;;;;;;;5.15;2.30;;;;;;;;;;4981583;28;20220;-61
2023/07/26 01:57:08;;;;;;;5.78;2.13;;;;;;;;;;4980095;28;20267;-61
2023/07/26 01:59:33;;;;;;;6.43;2.70;;;;;;;;;;4979737;28;20299;-61
2023/07/26 02:01:59;;;;;;;5.32;2.95;;;;;;;;;;4980379;28;20744;-61
2023/07/26 02:04:24;;;;;;;5.63;2.97;;;;;;;;;;4976048;28;20217;-61
2023/07/26 02:06:49;;;;;;;5.45;2.60;;;;;;;;;;4972280;28;20622;-61
2023/07/26 02:09:15;;;;;;;5.03;2.70;;;;;;;;;;4954231;28;20217;-61
2023/07/26 02:11:40;;;;;;;5.97;2.95;;;;;;;;;;4977910;28;20227;-61
2023/07/26 02:14:05;;;;;;;5.80;2.88;;;;;;;;;;4979412;28;20209;-61
2023/07/26 02:16:30;;;;;;;5.18;2.63;;;;;;;;;;4979204;28;20300;-61
2023/07/26 02:18:56;;;;;;;5.05;2.70;;;;;;;;;;4981118;28;20547;-61
2023/07/26 02:21:21;;;;;;;5.30;2.70;;;;;;;;;;4980594;28;20300;-61
2023/07/26 02:23:46;;;;;;;7.20;2.95;;;;;;;;;;4978470;28;20213;-61
2023/07/26 02:26:12;;;;;;;7.03;2.97;;;;;;;;;;4979223;28;20927;-61
2023/07/26 02:28:37;;;;;;;4.72;3.00;;;;;;;;;;4976633;28;20300;-61
2023/07/26 02:31:02;;;;;;;7.70;2.72;;;;;;;;;;4986700;28;20307;-61
2023/07/26 02:33:27;;;;;;;6.25;2.97;;;;;;;;;;4989616;28;20227;-61
2023/07/26 02:35:53;;;;;;;6.50;3.03;;;;;;;;;;4990519;28;20216;-61
2023/07/26 02:38:18;;;;;;;7.45;3.10;;;;;;;;;;4988110;28;20236;-61
2023/07/26 02:40:43;;;;;;;6.38;2.63;;;;;;;;;;4988811;28;20216;-61
2023/07/26 02:43:09;;;;;;;6.95;3.42;;;;;;;;;;4990969;28;20488;-61
2023/07/26 02:45:34;;;;;;;7.47;3.25;;;;;;;;;;4992646;28;20205;-61
2023/07/26 02:48:00;;;;;;;7.68;3.28;;;;;;;;;;4989053;28;20624;-61
2023/07/26 02:50:25;;;;;;;6.57;2.83;;;;;;;;;;4990242;28;20214;-61
2023/07/26 02:52:50;;;;;;;6.57;3.20;;;;;;;;;;4988297;28;20217;-61
2023/07/26 02:55:16;;;;;;;6.30;2.90;;;;;;;;;;4988424;28;20213;-61
2023/07/26 02:57:41;;;;;;;6.03;2.80;;;;;;;;;;4989986;28;20225;-61
2023/07/26 03:00:06;;;;;;;5.65;2.80;;;;;;;;;;4988462;28;20217;-61
2023/07/26 03:02:32;;;;;;;6.65;2.80;;;;;;;;;;4987791;28;20579;-61
2023/07/26 03:04:57;;;;;;;7.20;3.15;;;;;;;;;;4989821;28;20577;-61
2023/07/26 03:07:22;;;;;;;6.18;2.85;;;;;;;;;;4988656;28;20240;-61
2023/07/26 03:09:48;;;;;;;5.65;2.83;;;;;;;;;;4987471;28;20232;-61
2023/07/26 03:12:13;;;;;;;6.30;3.30;;;;;;;;;;4988538;28;20260;-61
2023/07/26 03:14:40;;;;;;;5.38;3.10;;;;;;;;;;4988832;28;20252;-61
2023/07/26 03:17:06;;;;;;;5.57;3.25;;;;;;;;;;4987896;28;20210;-61
2023/07/26 03:19:31;;;;;;;5.22;3.20;;;;;;;;;;4987559;28;20485;-61
2023/07/26 03:21:56;;;;;;;5.97;3.50;;;;;;;;;;4989646;28;20736;-61
2023/07/26 03:24:22;;;;;;;5.38;3.35;;;;;;;;;;4989019;28;20743;-61
2023/07/26 03:26:47;;;;;;;6.03;3.47;;;;;;;;;;4986678;28;20221;-61
2023/07/26 03:29:12;;;;;;;6.15;3.85;;;;;;;;;;4988619;28;20221;-61
2023/07/26 03:31:38;;;;;;;7.43;3.50;;;;;;;;;;4989502;28;20224;-61
2023/07/26 03:34:03;;;;;;;5.45;3.40;;;;;;;;;;4986639;28;20746;-61
2023/07/26 03:36:28;;;;;;;6.57;3.90;;;;;;;;;;4988459;28;20225;-61
2023/07/26 03:38:54;;;;;;;5.43;3.70;;;;;;;;;;4989284;28;20275;-61
2023/07/26 03:41:19;;;;;;;5.60;3.80;;;;;;;;;;4987098;28;20236;-61
2023/07/26 03:43:44;;;;;;;5.95;4.20;;;;;;;;;;4987256;28;20248;-61
2023/07/26 03:46:10;;;;;;;6.45;4.03;;;;;;;;;;4988417;28;20204;-61
2023/07/26 03:48:35;;;;;;;5.63;3.65;;;;;;;;;;4988624;28;20245;-61
2023/07/26 03:51:00;;;;;;;7.90;4.30;;;;;;;;;;4986711;28;20209;-61
2023/07/26 03:53:25;;;;;;;6.05;4.35;;;;;;;;;;4988736;28;20303;-61
2023/07/26 03:55:51;;;;;;;6.63;4.57;;;;;;;;;;4988524;28;20217;-61
2023/07/26 03:58:17;;;;;;;8.10;4.60;;;;;;;;;;4986832;28;20232;-61
2023/07/26 04:00:42;;;;;;;6.57;4.50;;;;;;;;;;4988009;28;20244;-61
2023/07/26 04:03:07;;;;;;;6.85;5.10;;;;;;;;;;4970345;28;20260;-61
2023/07/26 04:05:32;;;;;;;10.07;5.75;;;;;;;;;;4977326;28;20239;-61
2023/07/26 04:07:58;;;;;;;6.78;4.72;;;;;;;;;;4969356;28;20704;-61
2023/07/26 04:10:23;;;;;;;6.82;4.50;;;;;;;;;;4974531;28;20234;-61
2023/07/26 04:12:49;;;;;;;8.50;5.13;;;;;;;;;;4979415;28;20229;-61
2023/07/26 04:15:14;;;;;;;7.43;4.82;;;;;;;;;;4976461;28;20704;-61
2023/07/26 04:17:39;;;;;;;7.25;4.70;;;;;;;;;;4978362;28;20225;-61
2023/07/26 04:20:05;;;;;;;9.65;5.22;;;;;;;;;;4978657;28;20209;-61
2023/07/26 04:22:30;;;;;;;16.27;5.30;;;;;;;;;;4977749;28;20221;-61
2023/07/26 04:24:57;;;;;;;6.78;4.90;;;;;;;;;;4946287;28;20303;-61
2023/07/26 04:27:22;;;;;;;6.53;5.50;;;;;;;;;;4975313;28;20213;-61
2023/07/26 04:29:48;;;;;;;9.65;5.28;;;;;;;;;;4974351;28;20220;-62
2023/07/26 04:32:13;;;;;;;7.15;5.07;;;;;;;;;;4974285;28;20262;-61
2023/07/26 04:34:38;;;;;;;7.80;5.15;;;;;;;;;;4982875;28;20680;-61
2023/07/26 04:37:04;;;;;;;8.57;5.20;;;;;;;;;;4981967;28;20759;-61
2023/07/26 04:39:29;;;;;;;6.88;5.25;;;;;;;;;;4980786;28;20837;-61
2023/07/26 04:41:54;;;;;;;6.55;5.20;;;;;;;;;;4982133;28;20268;-61
2023/07/26 04:44:20;;;;;;;7.70;5.30;;;;;;;;;;4981301;28;20221;-61
2023/07/26 04:46:45;;;;;;;8.32;5.22;;;;;;;;;;4981901;28;20229;-61
2023/07/26 04:49:10;;;;;;;6.60;5.60;;;;;;;;;;4974761;28;20260;-62
2023/07/26 04:51:36;;;;;;;8.23;5.28;;;;;;;;;;4974749;28;20221;-61
2023/07/26 04:54:01;;;;;;;7.70;5.47;;;;;;;;;;4974103;28;20485;-61
2023/07/26 04:56:26;;;;;;;7.40;5.15;;;;;;;;;;4979724;28;20217;-61
2023/07/26 04:58:52;;;;;;;7.22;4.80;;;;;;;;;;4981624;28;20228;-61
2023/07/26 05:01:17;;;;;;;9.07;5.70;;;;;;;;;;4981845;28;20213;-61
2023/07/26 05:03:42;;;;;;;6.88;5.63;;;;;;;;;;4980743;28;20296;-62
2023/07/26 05:06:10;;;;;;;7.88;5.13;;;;;;;;;;4980486;28;20579;-62
2023/07/26 05:08:35;;;;;;;8.60;5.68;;;;;;;;;;4982326;28;20213;-63
2023/07/26 05:11:00;;;;;;;9.57;5.50;;;;;;;;;;4977719;28;20235;-62
2023/07/26 05:13:26;;;;;;;7.75;5.93;;;;;;;;;;4971569;28;20472;-62
2023/07/26 05:15:51;;;;;;;6.63;5.43;;;;;;;;;;4973849;28;20229;-62
2023/07/26 05:18:16;;;;;;;15.50;6.40;;;;;;;;;;4977498;28;20642;-61
2023/07/26 05:20:42;;;;;;;10.10;6.35;;;;;;;;;;4978792;28;20216;-62
2023/07/26 05:23:07;;;;;;;9.70;6.33;;;;;;;;;;4981288;28;21020;-61
2023/07/26 05:25:33;;;;;;;8.07;5.70;;;;;;;;;;4981455;28;20224;-61
2023/07/26 05:27:58;;;;;;;17.00;6.43;;;;;;;;;;4980514;28;20209;-61
2023/07/26 05:30:23;;;;;;;8.43;6.43;;;;;;;;;;4980430;28;20213;-61
2023/07/26 05:32:49;;;;;;;11.13;7.07;;;;;;;;;;4980414;28;20217;-61
2023/07/26 05:35:14;;;;;;;9.70;7.18;;;;;;;;;;4972604;28;20917;-62
2023/07/26 05:37:39;;;;;;;9.68;7.13;;;;;;;;;;4972302;28;20291;-61
2023/07/26 05:40:05;;;;;;;10.82;7.13;;;;;;;;;;4974307;28;20287;-62
2023/07/26 05:42:31;;;;;;;9.90;7.03;;;;;;;;;;4981896;28;20228;-61
2023/07/26 05:44:56;;;;;;;11.80;7.25;;;;;;;;;;4979467;28;20213;-61
2023/07/26 05:47:22;;;;;;;11.35;7.90;;;;;;;;;;4980083;28;20244;-61
2023/07/26 05:49:47;;;;;;;14.10;7.40;;;;;;;;;;4982024;28;20217;-61
2023/07/26 05:52:12;;;;;;;11.25;7.53;;;;;;;;;;4979915;28;20720;-61
2023/07/26 05:54:38;;;;;;;21.33;7.47;;;;;;;;;;4979943;28;20209;-61
2023/07/26 05:57:03;;;;;;;9.98;7.07;;;;;;;;;;4974617;28;20319;-61
2023/07/26 05:59:28;;;;;;;9.70;7.50;;;;;;;;;;4955859;28;20918;-61
2023/07/26 06:01:54;;;;;;;15.50;8.43;;;;;;;;;;4971142;28;20228;-61
2023/07/26 06:04:19;;;;;;;8.85;7.43;;;;;;;;;;4983259;28;20217;-61
2023/07/26 06:06:45;;;;;;;12.95;7.88;;;;;;;;;;4990330;28;20221;-61
2023/07/26 06:09:10;;;;;;;12.98;7.95;;;;;;;;;;4970202;28;20224;-61
2023/07/26 06:11:36;;;;;;;19.40;8.63;;;;;;;;;;4990362;28;20213;-61
2023/07/26 06:14:01;;;;;;;11.90;7.97;;;;;;;;;;4990382;28;20492;-61
2023/07/26 06:16:26;;;;;;;13.23;8.52;;;;;;;;;;4988967;28;20225;-60
2023/07/26 06:18:52;;;;;;;15.18;7.70;;;;;;;;;;4989078;28;20229;-61
2023/07/26 06:21:18;;;;;;;10.48;7.70;;;;;;;;;;4990048;28;20213;-61
2023/07/26 06:23:44;;;;;;;11.05;7.50;;;;;;;;;;4989986;28;20592;-61
2023/07/26 06:26:09;;;;;;;14.85;7.82;;;;;;;;;;4987987;28;20213;-61
2023/07/26 06:28:35;;;;;;;10.48;7.28;;;;;;;;;;4990500;28;20217;-61
2023/07/26 06:31:00;;;;;;;10.45;6.88;;;;;;;;;;4989168;28;20240;-61
2023/07/26 06:33:25;;;;;;;11.52;7.00;;;;;;;;;;4988718;28;20209;-61
2023/07/26 06:35:54;;;;;;;12.68;6.85;;;;;;;;;;4990451;28;20290;-61
2023/07/26 06:38:19;;;;;;;9.52;6.50;;;;;;;;;;4992375;28;20221;-61
2023/07/26 06:40:44;;;;;;;12.23;6.75;;;;;;;;;;4989660;28;20591;-61
2023/07/26 06:43:10;;;;;;;9.65;7.13;;;;;;;;;;4990228;28;20668;-61
2023/07/26 06:45:35;;;;;;;13.18;7.55;;;;;;;;;;4987448;28;20216;-61
2023/07/26 06:48:00;;;;;;;10.52;6.88;;;;;;;;;;4988863;28;20311;-61
2023/07/26 06:50:25;;;;;;;12.98;7.93;;;;;;;;;;4988979;28;20217;-61
2023/07/26 06:52:51;;;;;;;11.52;6.82;;;;;;;;;;4989019;28;20225;-61
2023/07/26 06:55:16;;;;;;;12.00;6.97;;;;;;;;;;4988165;28;20275;-61
2023/07/26 06:57:41;;;;;;;13.60;7.80;;;;;;;;;;4989435;28;20595;-62
2023/07/26 07:00:12;;;;;;;9.38;7.20;;;;;;;;;;4989291;28;20225;-61
2023/07/26 07:02:38;;;;;;;11.07;7.57;;;;;;;;;;4987217;28;20309;-61
2023/07/26 07:05:03;;;;;;;11.43;7.07;;;;;;;;;;4982937;28;20225;-62
2023/07/26 07:07:29;;;;;;;12.80;6.80;;;;;;;;;;4989980;28;20225;-61
2023/07/26 07:09:54;;;;;;;8.57;6.38;;;;;;;;;;4988163;28;20216;-61
2023/07/26 07:12:19;;;;;;;10.57;7.05;;;;;;;;;;4987631;28;20225;-61
2023/07/26 07:14:45;;;;;;;18.95;7.75;;;;;;;;;;4989551;28;20219;-61
2023/07/26 07:17:10;;;;;;;10.90;7.55;;;;;;;;;;4988378;28;20224;-61
2023/07/26 07:19:35;;;;;;;10.15;6.63;;;;;;;;;;4987224;28;20229;-61
2023/07/26 07:22:01;;;;;;;10.98;7.53;;;;;;;;;;4988425;28;20217;-61
2023/07/26 07:24:26;;;;;;;12.35;8.40;;;;;;;;;;4989208;28;20300;-62
2023/07/26 07:26:51;;;;;;;17.98;8.90;;;;;;;;;;4986333;28;20213;-62
2023/07/26 07:29:17;;;;;;;14.00;9.15;;;;;;;;;;4991371;28;20566;-61
2023/07/26 07:31:43;;;;;;;12.65;8.82;;;;;;;;;;4989511;28;20344;-62
2023/07/26 07:34:08;;;;;;;13.20;8.23;;;;;;;;;;4986626;28;20574;-61
2023/07/26 07:36:33;;;;;;;14.07;9.45;;;;;;;;;;4987802;28;20243;-61
2023/07/26 07:38:59;;;;;;;13.18;9.70;;;;;;;;;;4988739;28;20237;-61
2023/07/26 07:41:24;;;;;;;13.55;10.25;;;;;;;;;;4987418;28;20645;-61
2023/07/26 07:43:49;;;;;;;16.52;10.27;;;;;;;;;;4986777;28;20209;-61
2023/07/26 07:46:15;;;;;;;13.82;10.25;;;;;;;;;;4988420;28;20221;-61
2023/07/26 07:48:40;;;;;;;17.70;9.70;;;;;;;;;;4977302;28;20221;-62
2023/07/26 07:51:06;;;;;;;15.77;9.90;;;;;;;;;;4986113;28;20275;-63
2023/07/26 07:53:31;;;;;;;14.13;9.68;;;;;;;;;;4988629;28;20213;-63
2023/07/26 07:55:56;;;;;;;17.67;8.90;;;;;;;;;;4988384;28;20235;-64
2023/07/26 07:58:23;;;;;;;15.95;7.75;;;;;;;;;;4987159;28;20229;-65
2023/07/26 08:00:48;;;;;;;10.38;5.68;;;;;;;;;;4987008;28;20216;-65
2023/07/26 08:03:13;;;;;;;8.13;4.60;;;;;;;;;;4987619;28;20208;-65
2023/07/26 08:05:39;;;;;;;12.23;4.47;;;;;;;;;;4988250;28;20217;-65
2023/07/26 08:08:06;;;;;;;10.95;5.25;;;;;;;;;;4984894;28;20319;-63
2023/07/26 08:10:31;;;;;;;8.88;4.85;;;;;;;;;;4988906;28;20232;-63
2023/07/26 08:12:56;;;;;;;8.60;4.78;;;;;;;;;;4988868;28;20213;-64
2023/07/26 08:15:22;;;;;;;5.90;3.60;;;;;;;;;;4983500;28;20221;-63
2023/07/26 08:17:47;;;;;;;7.47;3.53;;;;;;;;;;4980238;28;20563;-65
2023/07/26 08:20:13;;;;;;;5.65;3.70;;;;;;;;;;4986106;28;20217;-63
2023/07/26 08:22:39;;;;;;;6.63;3.85;;;;;;;;;;4986037;28;20680;-62
2023/07/26 08:25:06;;;;;;;6.53;2.97;;;;;;;;;;4986293;28;20216;-61
2023/07/26 08:27:31;;;;;;;4.53;2.50;;;;;;;;;;4988573;28;20217;-61
2023/07/26 08:29:56;;;;;;;5.22;2.30;;;;;;;;;;4987778;28;20231;-62
2023/07/26 08:32:22;;;;;;;5.97;2.28;;;;;;;;;;4984468;28;20209;-61
2023/07/26 08:34:47;;;;;;;6.80;2.10;;;;;;;;;;4988324;28;20266;-61
2023/07/26 08:37:12;;;;;;;11.95;2.40;;;;;;;;;;4987180;28;20469;-62
2023/07/26 08:39:38;;;;;;;8.00;1.75;;;;;;;;;;4987016;28;20282;-61
2023/07/26 08:42:03;;;;;;;3.97;1.50;;;;;;;;;;4985930;28;20225;-61
2023/07/26 08:44:29;;;;;;;3.90;1.70;;;;;;;;;;4987010;28;20209;-61
2023/07/26 08:46:55;;;;;;;3.65;1.60;;;;;;;;;;4987649;28;20311;-60
2023/07/26 08:49:20;;;;;;;2.45;1.50;;;;;;;;;;4985572;28;20221;-61
2023/07/26 08:51:46;;;;;;;4.28;1.73;;;;;;;;;;4986587;28;20244;-61
2023/07/26 08:54:12;;;;;;;6.45;1.80;;;;;;;;;;4987807;28;20241;-60
2023/07/26 08:56:37;;;;;;;2.60;1.50;;;;;;;;;;4986168;28;20264;-61
2023/07/26 08:59:03;;;;;;;5.70;1.83;;;;;;;;;;4986889;28;20217;-61
2023/07/26 09:01:28;;;;;;;3.08;1.60;;;;;;;;;;4988024;28;20221;-61
2023/07/26 09:03:54;;;;;;;2.95;1.70;;;;;;;;;;4987395;28;20569;-61
2023/07/26 09:06:19;;;;;;;3.95;1.55;;;;;;;;;;4985734;28;20307;-61
2023/07/26 09:08:44;;;;;;;9.00;1.67;;;;;;;;;;4988434;28;20237;-61
2023/07/26 09:11:23;;;;;;;2.20;1.40;;;;;;;;;;4988340;28;20244;-60
2023/07/26 09:13:55;;;;;;;6.28;1.80;;;;;;;;;;4989394;28;20217;-60
2023/07/26 09:16:21;;;;;;;6.07;1.67;;;;;;;;;;4990546;28;20308;-61
2023/07/26 09:18:59;;;;;;;3.22;1.80;;;;;;;;;;4991122;28;20316;-61
2023/07/26 09:21:25;;;;;;;4.07;1.67;;;;;;;;;;4990468;28;20222;-61
2023/07/26 09:23:50;;;;;;;4.25;1.60;;;;;;;;;;4989455;28;20213;-60
2023/07/26 09:26:16;;;;;;;6.05;2.00;;;;;;;;;;4990602;28;20213;-61
2023/07/26 09:28:50;;;;;;;3.30;1.95;;;;;;;;;;4972368;28;20361;-61
2023/07/26 09:31:15;;;;;;;3.15;2.00;;;;;;;;;;4989143;28;20213;-61
2023/07/26 09:33:41;;;;;;;4.05;2.13;;;;;;;;;;4972635;28;20228;-61
2023/07/26 09:36:06;;;;;;;3.13;2.25;;;;;;;;;;4990811;28;20205;-60
2023/07/26 09:38:31;;;;;;;3.22;2.42;;;;;;;;;;4990406;28;20302;-60
2023/07/26 09:40:57;;;;;;;4.85;2.47;;;;;;;;;;4989268;28;20209;-60
2023/07/26 09:43:29;;;;;;;5.80;2.78;;;;;;;;;;4990707;28;20232;-62
2023/07/26 09:45:59;;;;;;;6.30;2.85;;;;;;;;;;4991300;28;20217;-61
2023/07/26 09:48:25;;;;;;;5.60;2.78;;;;;;;;;;4987798;28;20225;-61
2023/07/26 09:50:50;;;;;;;7.40;2.95;;;;;;;;;;4990541;28;20212;-61
2023/07/26 09:53:15;;;;;;;6.35;3.17;;;;;;;;;;4972832;28;20228;-60
2023/07/26 09:55:41;;;;;;;4.85;3.03;;;;;;;;;;4972562;28;20264;-60
2023/07/26 09:58:06;;;;;;;9.52;3.45;;;;;;;;;;4971838;28;20253;-60
2023/07/26 10:00:32;;;;;;;6.35;3.22;;;;;;;;;;4989150;28;20266;-60
2023/07/26 10:02:57;;;;;;;6.45;3.20;;;;;;;;;;4990234;28;21104;-60
2023/07/26 10:05:24;;;;;;;6.18;3.55;;;;;;;;;;4992704;28;20221;-60
2023/07/26 10:07:50;;;;;;;12.27;4.35;;;;;;;;;;4992265;28;20221;-60
2023/07/26 10:10:15;;;;;;;7.03;4.05;;;;;;;;;;4990539;28;20205;-60
2023/07/26 10:12:42;;;;;;;12.13;4.03;;;;;;;;;;4992995;28;20217;-60
2023/07/26 10:15:09;;;;;;;6.85;3.80;;;;;;;;;;4972374;28;20214;-60
2023/07/26 10:17:34;;;;;;;8.13;4.43;;;;;;;;;;4972472;28;20209;-60
2023/07/26 10:19:59;;;;;;;13.32;4.10;;;;;;;;;;4956633;28;20221;-60
2023/07/26 10:22:25;;;;;;;7.65;4.28;;;;;;;;;;4971627;28;20221;-61
2023/07/26 10:24:50;;;;;;;7.85;4.28;;;;;;;;;;4973770;28;20225;-60
2023/07/26 10:27:16;;;;;;;7.35;4.50;;;;;;;;;;4973303;28;20205;-60
2023/07/26 10:29:42;;;;;;;7.90;4.30;;;;;;;;;;4973050;28;20241;-61
2023/07/26 10:32:07;;;;;;;23.15;5.50;;;;;;;;;;4973113;28;20268;-60
2023/07/26 10:34:32;;;;;;;7.95;5.60;;;;;;;;;;4973624;28;20264;-60
2023/07/26 10:36:58;;;;;;;10.40;5.20;;;;;;;;;;4955577;28;20221;-60
2023/07/26 10:39:33;;;;;;;8.48;4.45;;;;;;;;;;4972932;28;20757;-60
2023/07/26 10:41:59;;;;;;;5.70;3.80;;;;;;;;;;4980702;28;20585;-60
2023/07/26 10:44:24;;;;;;;10.65;4.35;;;;;;;;;;4991662;28;20244;-63
2023/07/26 10:46:53;;;;;;;7.30;3.67;;;;;;;;;;4992590;28;20763;-62
2023/07/26 10:49:26;;;;;;;6.22;3.08;;;;;;;;;;4992550;28;20685;-62
2023/07/26 10:51:57;;;;;;;5.68;2.50;;;;;;;;;;4988968;28;20263;-62
2023/07/26 10:54:31;;;;;;;4.80;2.70;;;;;;;;;;4990221;28;20216;-61
2023/07/26 10:57:15;;;;;;;4.72;2.58;;;;;;;;;;4987883;28;20240;-61
2023/07/26 10:59:53;;;;;;;3.95;2.20;;;;;;;;;;4987964;28;20692;-61
2023/07/26 11:02:35;;;;;;;3.75;2.30;;;;;;;;;;4989026;28;20611;-62
2023/07/26 11:05:02;;;;;;;5.78;2.63;;;;;;;;;;4988850;28;20223;-61
2023/07/26 11:07:45;;;;;;;7.57;2.30;;;;;;;;;;4988864;28;20217;-61
2023/07/26 11:10:19;;;;;;;15.43;2.90;;;;;;;;;;4986852;28;20305;-62
2023/07/26 11:12:44;;;;;;;9.02;2.53;;;;;;;;;;4988902;28;20224;-61
2023/07/26 11:15:10;;;;;;;7.55;2.83;;;;;;;;;;4989108;28;20216;-61
2023/07/26 11:17:40;;;;;;;7.13;2.78;;;;;;;;;;4987618;28;20205;-61
2023/07/26 11:20:05;;;;;;;7.38;2.60;;;;;;;;;;4988057;28;20684;-62
2023/07/26 11:22:32;;;;;;;5.60;2.65;;;;;;;;;;4989398;28;20219;-62
2023/07/26 11:25:01;;;;;;;7.72;3.35;;;;;;;;;;4988133;28;20642;-61
2023/07/26 11:27:27;;;;;;;5.72;3.33;;;;;;;;;;4986739;28;20223;-61
2023/07/26 11:29:52;;;;;;;5.60;3.42;;;;;;;;;;4989581;28;20210;-62
2023/07/26 11:32:24;;;;;;;7.22;3.72;;;;;;;;;;4988036;28;20232;-61
2023/07/26 11:34:53;;;;;;;6.50;3.10;;;;;;;;;;4987522;28;20284;-61
2023/07/26 11:37:18;;;;;;;6.93;3.70;;;;;;;;;;4987852;28;20296;-61
2023/07/26 11:39:44;;;;;;;7.05;2.90;;;;;;;;;;4988170;28;20315;-61
2023/07/26 11:42:09;;;;;;;7.90;3.15;;;;;;;;;;4988313;28;20239;-60
2023/07/26 11:44:35;;;;;;;5.93;3.13;;;;;;;;;;4987016;28;20218;-61
2023/07/26 11:47:00;;;;;;;6.40;3.50;;;;;;;;;;4988080;28;21471;-61
2023/07/26 11:49:26;;;;;;;8.07;3.28;;;;;;;;;;4988628;28;20217;-60
2023/07/26 11:51:51;;;;;;;7.72;3.08;;;;;;;;;;4986978;28;20206;-61
2023/07/26 11:54:16;;;;;;;8.57;3.20;;;;;;;;;;4987559;28;20213;-61
2023/07/26 11:56:42;;;;;;;6.97;3.22;;;;;;;;;;4989126;28;20748;-61
2023/07/26 11:59:08;;;;;;;7.40;3.55;;;;;;;;;;4987252;28;20760;-61
2023/07/26 12:01:34;;;;;;;8.85;3.63;;;;;;;;;;4986536;28;20217;-61
2023/07/26 12:04:00;;;;;;;7.45;3.67;;;;;;;;;;4988812;28;20213;-61
2023/07/26 12:06:30;;;;;;;11.00;3.50;;;;;;;;;;4988463;28;20331;-61
2023/07/26 12:09:09;;;;;;;14.93;3.80;;;;;;;;;;4985208;28;20209;-61
2023/07/26 12:11:35;;;;;;;16.23;4.25;;;;;;;;;;4985196;28;20708;-60
2023/07/26 12:14:01;;;;;;;9.20;3.75;;;;;;;;;;4987849;28;20364;-60
2023/07/26 12:16:27;;;;;;;10.43;4.18;;;;;;;;;;4987297;28;20307;-61
2023/07/26 12:18:53;;;;;;;7.00;3.65;;;;;;;;;;4987272;28;20235;-61
2023/07/26 12:21:21;;;;;;;7.85;3.67;;;;;;;;;;4970359;28;20587;-60
2023/07/26 12:23:49;;;;;;;7.22;3.35;;;;;;;;;;4988815;28;20228;-61
2023/07/26 12:26:14;;;;;;;6.47;3.40;;;;;;;;;;4985680;28;20580;-60
2023/07/26 12:28:39;;;;;;;6.28;3.30;;;;;;;;;;4988450;28;20220;-61
2023/07/26 12:31:05;;;;;;;9.32;2.65;;;;;;;;;;4987831;28;20223;-61
2023/07/26 12:33:30;;;;;;;7.53;2.55;;;;;;;;;;4987169;28;20209;-61
2023/07/26 12:35:55;;;;;;;6.32;2.35;;;;;;;;;;4986988;28;20221;-61
2023/07/26 12:38:22;;;;;;;5.88;2.70;;;;;;;;;;4988207;28;20225;-61
2023/07/26 12:40:47;;;;;;;12.85;2.88;;;;;;;;;;4987709;28;20217;-61
2023/07/26 12:43:27;;;;;;;5.40;2.30;;;;;;;;;;4985529;28;20220;-60
2023/07/26 12:45:53;;;;;;;14.70;2.70;;;;;;;;;;4980820;28;20216;-60
2023/07/26 12:48:19;;;;;;;5.97;2.47;;;;;;;;;;4991323;28;20240;-60
2023/07/26 12:50:44;;;;;;;6.13;2.80;;;;;;;;;;4990053;28;20351;-60
2023/07/26 12:53:10;;;;;;;6.22;2.30;;;;;;;;;;4990894;28;20312;-60
2023/07/26 12:55:35;;;;;;;8.30;2.60;;;;;;;;;;4992029;28;20282;-60
2023/07/26 12:58:01;;;;;;;10.60;2.85;;;;;;;;;;4990131;28;20232;-60
2023/07/26 13:00:26;;;;;;;9.50;2.70;;;;;;;;;;4989238;28;20692;-61
2023/07/26 13:02:51;;;;;;;8.25;2.53;;;;;;;;;;4992086;28;20571;-61
2023/07/26 13:05:18;;;;;;;5.57;2.30;;;;;;;;;;4990997;28;20367;-60
2023/07/26 13:07:43;;;;;;;4.88;1.90;;;;;;;;;;4990038;28;20221;-60
2023/07/26 13:10:08;;;;;;;4.97;2.15;;;;;;;;;;4991456;28;20221;-61
2023/07/26 13:12:34;;;;;;;16.73;3.20;;;;;;;;;;4991033;28;20212;-60
2023/07/26 13:14:59;;;;;;;4.57;2.13;;;;;;;;;;4990471;28;20212;-60
2023/07/26 13:17:24;;;;;;;4.43;2.15;;;;;;;;;;4989310;28;20228;-61
2023/07/26 13:19:53;;;;;;;6.80;2.10;;;;;;;;;;4992699;28;20605;-60
2023/07/26 13:22:19;;;;;;;13.95;2.75;;;;;;;;;;4991042;28;20213;-60
2023/07/26 13:24:44;;;;;;;4.65;2.15;;;;;;;;;;4988578;28;20213;-61
2023/07/26 13:27:09;;;;;;;6.13;2.15;;;;;;;;;;4991757;28;20225;-60
2023/07/26 13:29:35;;;;;;;7.15;2.30;;;;;;;;;;4991590;28;20213;-60
2023/07/26 13:32:00;;;;;;;5.10;2.50;;;;;;;;;;4986722;28;20228;-60
2023/07/26 13:34:25;;;;;;;3.95;2.25;;;;;;;;;;4973918;28;20220;-60
2023/07/26 13:36:54;;;;;;;4.75;2.15;;;;;;;;;;4977738;28;20217;-60
2023/07/26 13:39:19;;;;;;;6.13;2.40;;;;;;;;;;4977355;28;20217;-60
2023/07/26 13:41:44;;;;;;;4.53;2.33;;;;;;;;;;4983296;28;20221;-60
2023/07/26 13:44:10;;;;;;;6.47;2.30;;;;;;;;;;4984534;28;20263;-60
2023/07/26 13:46:35;;;;;;;8.45;2.45;;;;;;;;;;4984453;28;20685;-60
2023/07/26 13:49:00;;;;;;;7.78;2.30;;;;;;;;;;4983533;28;21308;-60
2023/07/26 13:51:26;;;;;;;6.47;2.00;;;;;;;;;;4985309;28;20217;-60
2023/07/26 13:53:51;;;;;;;6.78;2.40;;;;;;;;;;4985021;28;20209;-60
2023/07/26 13:56:16;;;;;;;6.90;2.40;;;;;;;;;;4978034;28;20217;-60
2023/07/26 13:58:42;;;;;;;7.53;2.00;;;;;;;;;;4976579;28;20313;-60
2023/07/26 14:01:08;;;;;;;5.50;2.50;;;;;;;;;;4977302;28;20213;-60
2023/07/26 14:03:33;;;;;;;3.88;2.20;;;;;;;;;;4956363;28;20217;-60
2023/07/26 14:05:59;;;;;;;6.50;2.60;;;;;;;;;;4980895;28;20548;-60
2023/07/26 14:08:24;;;;;;;9.60;2.42;;;;;;;;;;4983530;28;20776;-60
2023/07/26 14:10:49;;;;;;;5.65;2.15;;;;;;;;;;4984692;28;20228;-60
2023/07/26 14:13:15;;;;;;;9.15;2.30;;;;;;;;;;4984269;28;20224;-60
2023/07/26 14:15:40;;;;;;;8.65;2.63;;;;;;;;;;4987037;28;20240;-60
2023/07/26 14:18:06;;;;;;;6.50;2.45;;;;;;;;;;4979772;28;20810;-60
2023/07/26 14:20:32;;;;;;;6.57;2.72;;;;;;;;;;4977319;28;20209;-60
2023/07/26 14:22:58;;;;;;;4.15;2.45;;;;;;;;;;4953563;28;20231;-60
2023/07/26 14:25:23;;;;;;;15.60;2.50;;;;;;;;;;4978412;28;20221;-60
2023/07/26 14:27:48;;;;;;;12.57;2.88;;;;;;;;;;4984208;28;20855;-60
2023/07/26 14:30:14;;;;;;;8.32;2.40;;;;;;;;;;4983935;28;20245;-60
2023/07/26 14:32:39;;;;;;;8.52;2.40;;;;;;;;;;4982266;28;20247;-60